Melville, MT (59055)

11:41 PM MDT on August 20, 2014 (GMT -0600)
S. Boulder-McKenzie Flats | Change Station
CLOSE
Current Station
Personal Weather Station
Location: Big Timber, MT
Elevation: 4840 ft
Nearby Weather Stations

Elev 4840 ft 45.75 °N, 109.96 °W | Updated 1 second ago

Mostly Cloudy
Mostly Cloudy
59.8 °F
Feels Like 59.8 °F
N
4.0
Wind Variable Wind from SW
Gusts 4.0 mph

Today
High -- | Low -- °F
--% Chance of Precip.
Yesterday
High -- | Low -- °F
Precip. -- in
6:25 AM 8:19 PM
Waning Crescent, 16% visible
Pressure 29.84 in
Visibility 10.0 miles
Clouds Mostly Cloudy 11000 ft
Dew Point 50 °F
Humidity 69%
Rainfall 0.00 in
Snow Depth Not available.
UV 0 out of 12
Pollen 7.90 out of 12
Air Quality Not available.
Flu Activity Not available.
METAR KLVM 210453Z AUTO 23015KT 10SM BKN110 18/08 A2996 RMK AO2 SLP105 T01780078 $

More Conditions Fewer Conditions

Pressure 29.84 in
Visibility 10.0 miles
Clouds Mostly Cloudy 11000 ft
Dew Point 50 °F
Humidity 69%
Rainfall 0.00 in
Snow Depth Not available.
UV 0 out of 12
Pollen 7.90 out of 12
Air Quality Not available.
Flu Activity Not available.
METAR KLVM 210453Z AUTO 23015KT 10SM BKN110 18/08 A2996 RMK AO2 SLP105 T01780078 $

More Conditions Fewer Conditions

10-Day Weather Forecast

Almanac

Astronomy

Aug. 20, 2014 Rise Set
Actual Time 6:25 AM MDT 8:19 PM MDT
Civil Twilight 5:53 AM MDT 8:51 PM MDT
Nautical Twilight 5:13 AM MDT 9:30 PM MDT
Astronomical Twilight 4:30 AM MDT 10:13 PM MDT
Moon 2:01 AM MDT (8/20) 5:12 PM MDT (8/20)
Length of Visible Light 14h 58m
Length of Day
13h 54m
Tomorrow will be 2m 59s shorter.
Waning Crescent, 16% of the Moon is Illuminated
Aug 21
Waning Crescent
Aug 25
New
Sep 2
First Quarter
Sep 8
Full
Sep 15
Last Quarter

Yesterday's Extremes

State Highs State Lows

Community

WunderPhotos

Upload Photos

1,745,858 photos uploaded!

Nearby

Snow Depth

Station Depth Elevation
Porcupine 1 in 6500 ft
Daisy Peak 0 in 7600 ft
Placer Basin 0 in 8830 ft
Crystal Lake 0 in 6050 ft
Sacajawea 0 in 6550 ft

Earthquake Activity

City Distance Mag. Time & Date
No recent earthquake activity has been reported nearby.
Minimum magnitude displayed is 2.5.

Coastal Water Temperatures

Place Temperature
No Stations Reporting

Nearby Weather Stations